Time;durP1;ratioP1;P1;durP2;ratioP2;P2;SDS_P1;SDS_P2;PMS_P1;PMS_P2;Temp;Humidity;BMP_temperature;BMP_pressure;BME280_temperature;BME280_humidity;BME280_pressure;Samples;Min_cycle;Max_cycle;Signal;HPM_P1;HPM_P2
2023/03/29 00:00:26;;;;;;;;;1.67;1.67;;;;;18.78;33.04;100631.97;5071494;28;45623;-80
2023/03/29 00:02:55;;;;;;;;;0.67;0.00;;;;;18.78;32.47;100629.31;5072946;27;45531;-81
2023/03/29 00:05:25;;;;;;;;;1.67;0.67;;;;;18.80;32.78;100627.59;5075435;28;45603;-81
2023/03/29 00:07:52;;;;;;;;;1.00;0.67;;;;;18.66;32.83;100614.34;5078028;28;45371;-76
2023/03/29 00:10:22;;;;;;;;;0.67;0.33;;;;;18.74;32.44;100635.50;5077963;28;45400;-75
2023/03/29 00:12:50;;;;;;;;;0.67;0.67;;;;;18.69;32.84;100624.91;5078003;28;45478;-72
2023/03/29 00:15:16;;;;;;;;;0.00;0.00;;;;;18.77;32.37;100640.78;5077529;28;46150;-80
2023/03/29 00:17:41;;;;;;;;;0.00;0.00;;;;;18.74;32.68;100630.22;5059295;28;45517;-81
2023/03/29 00:20:11;;;;;;;;;1.67;1.00;;;;;18.72;32.29;100629.34;5056403;28;45524;-81
2023/03/29 00:22:38;;;;;;;;;1.67;1.33;;;;;18.73;32.31;100630.22;5069612;28;45519;-80
2023/03/29 00:25:06;;;;;;;;;0.67;0.00;;;;;18.76;32.31;100630.19;5077685;28;45537;-73
2023/03/29 00:27:32;;;;;;;;;0.00;0.00;;;;;18.67;32.47;100618.75;5059355;28;47064;-80
2023/03/29 00:29:58;;;;;;;;;1.00;0.67;;;;;18.71;32.59;100627.56;5077518;28;45498;-71
2023/03/29 00:32:24;;;;;;;;;0.33;0.33;;;;;18.68;32.62;100627.56;5054176;28;45485;-71
2023/03/29 00:34:52;;;;;;;;;0.67;0.67;;;;;18.66;32.98;100631.97;5064023;28;46213;-75
2023/03/29 00:37:17;;;;;;;;;1.00;0.67;;;;;18.62;32.94;100632.84;5064122;28;46326;-72
2023/03/29 00:39:45;;;;;;;;;0.00;0.00;;;;;18.48;32.97;100609.97;5075012;28;45367;-81
2023/03/29 00:42:13;;;;;;;;;0.67;0.67;;;;;18.58;33.14;100615.22;5059428;28;45622;-71
2023/03/29 00:44:55;;;;;;;;;1.33;0.67;;;;;18.45;33.24;100604.66;5076450;28;45510;-71
2023/03/29 00:47:52;;;;;;;;;1.33;1.00;;;;;18.51;33.29;100624.94;5074687;28;45592;-73
2023/03/29 00:50:30;;;;;;;;;1.33;1.00;;;;;18.46;33.50;100627.63;5057353;28;45513;-72
2023/03/29 00:53:03;;;;;;;;;0.33;0.33;;;;;18.43;33.48;100622.31;5077569;28;45690;-72
2023/03/29 00:55:38;;;;;;;;;1.67;1.33;;;;;18.40;33.55;100616.13;5082380;28;45535;-71
2023/03/29 00:58:08;;;;;;;;;1.67;0.67;;;;;18.33;33.31;100607.34;5082071;28;45336;-72
2023/03/29 01:00:38;;;;;;;;;1.00;1.00;;;;;18.40;33.19;100606.47;5095949;28;45576;-72
2023/03/29 01:03:12;;;;;;;;;1.00;1.00;;;;;18.40;33.45;100605.56;5097813;28;46465;-73
2023/03/29 01:05:46;;;;;;;;;0.00;0.00;;;;;18.38;33.55;100595.00;5077374;28;46804;-81
2023/03/29 01:08:31;;;;;;;;;1.67;1.00;;;;;18.36;33.42;100604.66;5065149;28;45445;-72
2023/03/29 01:11:07;;;;;;;;;1.00;1.00;;;;;18.35;33.32;100588.84;5082823;28;45430;-80
2023/03/29 01:13:45;;;;;;;;;1.00;1.00;;;;;18.25;33.65;100572.97;5081660;28;45508;-72
2023/03/29 01:16:12;;;;;;;;;0.67;0.67;;;;;18.35;33.51;100594.13;5078994;28;45493;-72
2023/03/29 01:18:40;;;;;;;;;2.00;1.00;;;;;18.26;33.58;100582.69;5077602;28;45343;-81
2023/03/29 01:21:15;;;;;;;;;1.33;0.67;;;;;18.32;33.60;100597.63;5075029;28;45410;-78
2023/03/29 01:23:57;;;;;;;;;0.67;0.67;;;;;18.36;33.61;100594.09;5077847;28;45437;-80
2023/03/29 01:26:25;;;;;;;;;2.00;1.00;;;;;18.37;33.26;100597.66;5077489;28;45455;-81
2023/03/29 01:29:33;;;;;;;;;1.00;1.00;;;;;18.34;33.43;100595.84;5077155;28;45450;-81
2023/03/29 01:32:07;;;;;;;;;0.67;0.67;;;;;18.38;33.28;100607.31;5076120;28;45553;-81
2023/03/29 01:34:54;;;;;;;;;3.33;1.67;;;;;18.26;33.69;100595.91;5075750;28;46285;-81
2023/03/29 01:37:36;;;;;;;;;1.00;0.67;;;;;18.33;33.30;100593.25;5076532;28;45914;-72
2023/03/29 01:40:04;;;;;;;;;0.67;0.67;;;;;18.31;33.23;100582.66;5058680;28;45492;-81
2023/03/29 01:43:04;;;;;;;;;0.67;0.67;;;;;18.35;33.39;100587.06;5067361;27;45503;-77
2023/03/29 01:45:51;;;;;;;;;0.33;0.33;;;;;18.32;33.56;100583.53;5070922;28;45606;-73
2023/03/29 01:48:29;;;;;;;;;1.67;0.33;;;;;18.26;33.68;100579.13;5056552;28;45429;-79
2023/03/29 01:51:03;;;;;;;;;0.33;0.33;;;;;18.24;33.65;100586.19;5075378;28;45413;-71
2023/03/29 01:53:55;;;;;;;;;0.67;0.67;;;;;18.29;33.13;100587.06;5074551;28;45496;-81
2023/03/29 01:56:25;;;;;;;;;0.67;0.67;;;;;18.33;33.51;100572.09;5076509;28;45501;-81
2023/03/29 01:59:00;;;;;;;;;0.67;0.67;;;;;18.27;33.64;100567.69;5076666;28;46205;-79
2023/03/29 02:01:30;;;;;;;;;0.67;0.67;;;;;18.29;33.46;100579.13;5074343;28;45395;-80
2023/03/29 02:04:01;;;;;;;;;1.33;1.33;;;;;18.22;33.84;100580.00;5076715;28;45481;-76
2023/03/29 02:06:31;;;;;;;;;0.33;0.33;;;;;18.12;33.82;100571.19;5074687;28;45320;-81
2023/03/29 02:08:57;;;;;;;;;0.00;0.00;;;;;18.08;34.02;100567.72;5076500;28;46222;-81
2023/03/29 02:11:26;;;;;;;;;1.33;0.67;;;;;18.12;34.33;100580.91;5058313;28;45468;-82
2023/03/29 02:13:52;;;;;;;;;1.33;0.67;;;;;18.02;34.69;100570.31;5076483;28;45374;-78
2023/03/29 02:16:18;;;;;;;;;0.67;0.67;;;;;18.00;34.58;100572.09;5076793;28;45404;-81
2023/03/29 02:18:47;;;;;;;;;1.67;1.00;;;;;18.01;34.52;100571.22;5058441;28;46593;-81
2023/03/29 02:21:25;;;;;;;;;0.33;0.33;;;;;18.03;34.76;100566.81;5076848;28;45468;-81
2023/03/29 02:23:54;;;;;;;;;0.67;0.67;;;;;18.01;34.83;100570.34;5081960;27;45370;-72
2023/03/29 02:26:21;;;;;;;;;1.00;1.00;;;;;17.98;34.26;100581.78;5075419;28;45676;-78
2023/03/29 02:28:47;;;;;;;;;0.33;0.33;;;;;17.97;34.65;100580.03;5076360;28;45611;-79
2023/03/29 02:31:21;;;;;;;;;0.67;0.67;;;;;17.96;34.47;100572.09;5076732;28;45617;-81
2023/03/29 02:34:06;;;;;;;;;1.67;0.67;;;;;18.01;34.53;100567.72;5052068;28;45338;-80
2023/03/29 02:36:43;;;;;;;;;0.67;0.67;;;;;18.02;34.51;100574.75;5056694;28;45520;-79
2023/03/29 02:39:14;;;;;;;;;1.00;1.00;;;;;18.04;34.29;100576.47;5075960;28;45282;-72
2023/03/29 02:41:43;;;;;;;;;0.67;0.67;;;;;18.01;33.96;100560.66;5073756;28;45433;-74
2023/03/29 02:44:13;;;;;;;;;1.00;0.67;;;;;18.14;33.85;100571.22;5057870;28;45533;-81
2023/03/29 02:46:41;;;;;;;;;0.67;0.67;;;;;18.16;33.89;100559.75;5055674;28;45435;-81
2023/03/29 02:49:09;;;;;;;;;0.00;0.00;;;;;18.15;33.98;100565.06;5057606;28;46312;-80
2023/03/29 02:51:36;;;;;;;;;0.67;0.67;;;;;18.20;33.83;100571.19;5057477;28;45502;-81
2023/03/29 02:54:04;;;;;;;;;1.33;0.67;;;;;18.22;33.87;100569.44;5077176;28;45435;-72
2023/03/29 02:56:49;;;;;;;;;0.67;0.67;;;;;18.22;34.11;100567.69;5077579;28;45439;-72
2023/03/29 02:59:21;;;;;;;;;1.00;0.67;;;;;18.26;33.99;100565.91;5077639;28;45410;-78
2023/03/29 03:01:47;;;;;;;;;1.67;0.67;;;;;18.20;33.98;100550.91;5076665;28;45446;-72
2023/03/29 03:04:14;;;;;;;;;3.33;1.67;;;;;18.28;34.15;100561.50;5077781;28;45303;-78
2023/03/29 03:06:40;;;;;;;;;0.67;0.67;;;;;18.28;33.96;100553.56;5059368;28;45367;-78
2023/03/29 03:09:06;;;;;;;;;1.33;0.33;;;;;18.31;33.75;100556.22;5077230;28;46091;-72
2023/03/29 03:11:32;;;;;;;;;0.33;0.00;;;;;18.33;33.93;100559.72;5077140;28;45422;-72
2023/03/29 03:13:58;;;;;;;;;1.67;0.67;;;;;18.34;34.09;100552.66;5077174;28;45477;-76
2023/03/29 03:16:25;;;;;;;;;0.67;0.67;;;;;18.34;34.30;100555.31;5076535;28;45439;-81
2023/03/29 03:18:51;;;;;;;;;0.67;0.67;;;;;18.33;34.32;100551.81;5058713;28;46181;-78
2023/03/29 03:21:17;;;;;;;;;0.00;0.00;;;;;18.26;34.12;100534.16;5077556;28;45284;-72
2023/03/29 03:23:44;;;;;;;;;0.67;0.67;;;;;18.24;34.02;100520.06;5077535;28;45382;-72
2023/03/29 03:26:10;;;;;;;;;0.00;0.00;;;;;18.29;33.88;100526.25;5059130;28;45507;-73
2023/03/29 03:28:37;;;;;;;;;1.00;1.00;;;;;18.27;33.96;100531.53;5076799;28;45561;-73
2023/03/29 03:31:03;;;;;;;;;1.00;1.00;;;;;18.24;33.72;100526.28;5057875;28;45326;-72
2023/03/29 03:33:29;;;;;;;;;0.67;0.67;;;;;18.26;33.85;100539.47;5058770;28;45312;-73
2023/03/29 03:35:55;;;;;;;;;0.33;0.33;;;;;18.23;33.73;100534.19;5077154;28;45453;-81
2023/03/29 03:38:22;;;;;;;;;0.67;0.33;;;;;18.12;33.85;100514.81;5080248;28;46221;-72
2023/03/29 03:40:54;;;;;;;;;1.33;0.67;;;;;18.09;33.71;100511.28;5080603;28;45260;-79
2023/03/29 03:43:20;;;;;;;;;0.33;0.33;;;;;18.08;33.74;100508.66;5080347;28;45486;-72
2023/03/29 03:45:46;;;;;;;;;1.67;1.67;;;;;18.16;33.65;100527.16;5080925;28;45537;-72
2023/03/29 03:48:11;;;;;;;;;0.33;0.00;;;;;18.14;33.80;100524.50;5080405;28;46016;-72
2023/03/29 03:50:37;;;;;;;;;1.00;0.67;;;;;18.02;33.97;100503.38;5080922;27;46101;-71
2023/03/29 03:53:04;;;;;;;;;1.33;0.67;;;;;18.05;33.95;100509.53;5082635;28;45230;-72
2023/03/29 03:55:31;;;;;;;;;0.67;0.67;;;;;18.08;34.07;100519.22;5082119;28;45657;-72
2023/03/29 03:57:56;;;;;;;;;1.33;1.00;;;;;18.03;34.19;100516.59;5080367;28;45399;-81
2023/03/29 04:00:22;;;;;;;;;0.67;0.67;;;;;18.02;33.79;100519.22;5080206;28;45380;-80
2023/03/29 04:02:49;;;;;;;;;1.00;1.00;;;;;18.02;33.92;100520.09;5080706;28;45451;-80
2023/03/29 04:05:16;;;;;;;;;1.33;0.67;;;;;18.09;33.85;100537.72;5080890;27;45486;-80
2023/03/29 04:07:42;;;;;;;;;1.33;1.00;;;;;17.98;34.15;100523.63;5078542;28;45326;-82
2023/03/29 04:10:08;;;;;;;;;1.67;0.67;;;;;17.98;34.32;100523.63;5079926;28;45262;-72
2023/03/29 04:12:34;;;;;;;;;0.67;0.67;;;;;18.05;34.25;100532.47;5061594;28;45492;-72
2023/03/29 04:15:00;;;;;;;;;0.33;0.33;;;;;18.04;34.29;100538.59;5080163;28;45493;-72
2023/03/29 04:17:26;;;;;;;;;0.67;0.67;;;;;17.98;34.33;100522.75;5079918;28;46195;-72
2023/03/29 04:19:52;;;;;;;;;1.67;0.67;;;;;18.09;34.16;100527.16;5078773;28;45397;-72
2023/03/29 04:22:17;;;;;;;;;1.33;0.67;;;;;18.04;34.38;100520.09;5062098;28;45480;-75
2023/03/29 04:24:43;;;;;;;;;1.00;0.67;;;;;18.08;34.28;100535.06;5080231;28;45449;-83
2023/03/29 04:27:09;;;;;;;;;0.33;0.33;;;;;18.11;34.47;100537.72;5079082;28;47083;-75
2023/03/29 04:29:35;;;;;;;;;0.67;0.67;;;;;18.11;34.21;100539.50;5079670;28;45344;-82
2023/03/29 04:32:00;;;;;;;;;0.67;0.67;;;;;17.99;34.41;100513.97;5079964;28;45344;-72
2023/03/29 04:34:26;;;;;;;;;0.67;0.67;;;;;18.03;34.77;100529.81;5061855;28;45440;-81
2023/03/29 04:36:51;;;;;;;;;0.67;0.67;;;;;18.01;34.79;100528.06;5068832;28;45478;-73
2023/03/29 04:39:17;;;;;;;;;0.00;0.00;;;;;17.97;35.26;100529.81;5044834;28;45530;-72
2023/03/29 04:41:43;;;;;;;;;0.67;0.67;;;;;17.93;34.78;100529.81;5079292;28;45367;-80
2023/03/29 04:44:09;;;;;;;;;0.33;0.33;;;;;17.90;34.98;100525.41;5079628;28;45431;-72
2023/03/29 04:46:37;;;;;;;;;2.33;1.33;;;;;17.80;34.82;100511.28;5079465;28;45438;-80
2023/03/29 04:49:04;;;;;;;;;1.33;0.67;;;;;17.79;34.94;100508.66;5078161;28;45448;-73
2023/03/29 04:51:30;;;;;;;;;2.00;2.00;;;;;17.79;35.04;100519.22;5061301;28;45504;-81
2023/03/29 04:53:56;;;;;;;;;1.00;1.00;;;;;17.84;34.81;100522.75;5079471;28;45508;-72
2023/03/29 04:56:22;;;;;;;;;1.00;1.00;;;;;17.89;34.25;100526.28;5079296;28;45974;-77
2023/03/29 04:58:49;;;;;;;;;2.00;2.00;;;;;17.92;34.57;100530.69;5079357;28;45386;-72
2023/03/29 05:01:14;;;;;;;;;1.33;0.67;;;;;17.88;34.58;100525.41;5078358;28;45478;-72
2023/03/29 05:03:40;;;;;;;;;2.00;1.00;;;;;17.86;34.46;100519.22;5079469;28;45361;-73
2023/03/29 05:06:09;;;;;;;;;3.00;1.00;;;;;17.84;34.76;100520.13;5078950;28;45960;-72
2023/03/29 05:08:39;;;;;;;;;2.00;1.00;;;;;17.74;34.56;100502.47;5079020;28;45493;-73
2023/03/29 05:11:07;;;;;;;;;2.00;0.00;;;;;17.80;34.52;100505.13;5079091;28;45283;-77
2023/03/29 05:13:33;;;;;;;;;0.67;0.67;;;;;17.88;34.43;100517.47;5079208;28;45241;-74
2023/03/29 05:15:59;;;;;;;;;1.00;1.00;;;;;17.91;34.08;100503.38;5078881;28;46182;-82
2023/03/29 05:18:25;;;;;;;;;1.00;1.00;;;;;17.97;33.93;100506.03;5077656;28;45406;-72
2023/03/29 05:20:52;;;;;;;;;3.67;3.00;;;;;18.02;33.99;100512.16;5077064;28;46385;-72
2023/03/29 05:23:19;;;;;;;;;1.67;1.00;;;;;18.00;34.25;100511.28;5078384;28;45445;-81
2023/03/29 05:25:47;;;;;;;;;0.67;0.00;;;;;18.00;34.04;100511.28;5078108;28;46418;-72
2023/03/29 05:28:13;;;;;;;;;1.33;1.33;;;;;18.03;33.95;100521.00;5077885;28;45321;-81
2023/03/29 05:30:39;;;;;;;;;0.67;0.67;;;;;18.03;34.06;100521.88;5075115;28;45977;-79
2023/03/29 05:33:05;;;;;;;;;4.33;4.33;;;;;18.02;34.34;100508.66;5059764;28;45469;-71
2023/03/29 05:35:31;;;;;;;;;3.33;3.33;;;;;18.01;34.10;100517.47;5059250;28;46907;-70
2023/03/29 05:37:57;;;;;;;;;3.67;3.33;;;;;17.92;34.18;100505.13;5077828;28;45391;-78
2023/03/29 05:40:26;;;;;;;;;4.33;2.67;;;;;18.00;33.94;100521.88;5059524;28;45319;-81
2023/03/29 05:42:52;;;;;;;;;4.33;3.33;;;;;18.03;33.92;100515.72;5059987;28;45413;-70
2023/03/29 05:45:18;;;;;;;;;5.00;5.00;;;;;18.05;34.01;100517.47;5076532;28;46049;-76
2023/03/29 05:47:44;;;;;;;;;10.00;9.00;;;;;18.06;33.81;100511.31;5076650;28;45279;-80
2023/03/29 05:50:10;;;;;;;;;7.67;7.33;;;;;18.02;33.79;100511.28;5067079;27;45967;-79
2023/03/29 05:52:36;;;;;;;;;4.67;4.33;;;;;18.06;34.32;100518.34;5076976;28;45635;-76
2023/03/29 05:55:06;;;;;;;;;8.33;7.00;;;;;18.04;34.07;100520.97;5076380;28;45597;-82
2023/03/29 05:57:35;;;;;;;;;4.67;4.67;;;;;18.00;34.30;100519.22;5076421;28;45374;-82
2023/03/29 06:00:04;;;;;;;;;4.33;4.33;;;;;17.98;33.98;100515.69;5055385;28;45237;-81
2023/03/29 06:02:30;;;;;;;;;2.00;2.00;;;;;18.08;33.93;100519.22;5076972;28;45442;-82
2023/03/29 06:04:56;;;;;;;;;3.67;2.67;;;;;18.14;33.80;100524.50;5076020;28;45326;-75
2023/03/29 06:07:22;;;;;;;;;1.67;1.67;;;;;18.10;33.68;100506.88;5076656;27;45358;-81
2023/03/29 06:09:47;;;;;;;;;1.33;1.33;;;;;18.21;33.67;100526.25;5076478;28;45474;-72
2023/03/29 06:12:13;;;;;;;;;1.67;1.33;;;;;18.24;33.92;100526.28;5076893;28;45371;-72
2023/03/29 06:14:39;;;;;;;;;0.67;0.67;;;;;18.17;33.85;100519.22;5075825;28;45367;-73
2023/03/29 06:17:04;;;;;;;;;2.00;2.00;;;;;18.27;34.18;100525.38;5058136;28;45557;-73
2023/03/29 06:19:30;;;;;;;;;1.33;1.33;;;;;18.34;33.96;100531.53;5075842;28;45437;-73
2023/03/29 06:21:56;;;;;;;;;0.67;0.67;;;;;18.37;33.87;100528.88;5076321;28;45463;-73
2023/03/29 06:24:21;;;;;;;;;1.33;1.33;;;;;18.38;33.66;100522.69;5075519;28;46073;-75
2023/03/29 06:26:47;;;;;;;;;1.33;1.33;;;;;18.45;33.52;100516.50;5076028;28;45413;-73
2023/03/29 06:29:12;;;;;;;;;3.00;2.00;;;;;18.52;33.00;100506.78;5076044;28;45715;-74
2023/03/29 06:31:39;;;;;;;;;0.67;0.67;;;;;18.72;33.32;100536.72;5076141;28;45518;-72
2023/03/29 06:34:05;;;;;;;;;1.67;0.33;;;;;18.80;33.46;100524.38;5075741;28;45535;-74
2023/03/29 06:36:33;;;;;;;;;1.33;1.33;;;;;18.97;32.95;100526.06;5075217;28;45622;-72
2023/03/29 06:38:58;;;;;;;;;0.67;0.67;;;;;19.15;32.43;100539.19;5076327;28;45660;-73
2023/03/29 06:41:25;;;;;;;;;1.00;1.00;;;;;19.35;32.37;100535.56;5076178;28;45532;-82
2023/03/29 06:43:50;;;;;;;;;1.00;1.00;;;;;19.51;32.27;100537.19;5076314;28;46196;-82
2023/03/29 06:46:16;;;;;;;;;3.00;2.00;;;;;19.62;32.03;100530.06;5076140;28;45864;-76
2023/03/29 06:48:41;;;;;;;;;1.00;1.00;;;;;19.76;31.40;100531.78;5076665;28;45436;-75
2023/03/29 06:51:07;;;;;;;;;1.00;1.00;;;;;19.84;31.37;100517.56;5076973;28;45344;-75
2023/03/29 06:53:33;;;;;;;;;2.00;2.00;;;;;20.06;31.39;100533.28;5077342;28;45462;-74
2023/03/29 06:55:59;;;;;;;;;2.00;2.00;;;;;20.12;31.34;100524.38;5060252;28;45533;-79
2023/03/29 06:58:26;;;;;;;;;2.00;1.00;;;;;20.32;30.89;100526.84;5080046;28;45448;-77
2023/03/29 07:00:52;;;;;;;;;2.00;2.00;;;;;20.54;30.76;100533.66;5076918;28;45484;-74
2023/03/29 07:03:22;;;;;;;;;3.33;2.67;;;;;21.16;29.91;100538.22;5057253;28;45722;-74
2023/03/29 07:05:50;;;;;;;;;3.00;2.67;;;;;21.94;29.12;100520.22;5076053;28;45564;-73
2023/03/29 07:08:17;;;;;;;;;1.00;1.00;;;;;23.14;27.94;100532.13;5073947;28;45485;-80
2023/03/29 07:10:46;;;;;;;;;2.00;2.00;;;;;24.25;26.29;100504.56;5076941;28;45533;-74
2023/03/29 07:13:12;;;;;;;;;2.00;1.00;;;;;25.35;25.60;100522.75;5079355;28;46225;-73
2023/03/29 07:15:42;;;;;;;;;1.00;1.00;;;;;26.05;24.54;100513.34;5080110;28;45527;-78
2023/03/29 07:18:09;;;;;;;;;1.33;1.00;;;;;26.35;24.69;100519.41;5079982;28;45487;-74
2023/03/29 07:20:37;;;;;;;;;0.67;0.67;;;;;27.26;22.16;100512.53;5061739;28;45590;-84
2023/03/29 07:23:03;;;;;;;;;1.00;1.00;;;;;27.80;22.43;100513.84;5058775;28;45641;-73
2023/03/29 07:25:29;;;;;;;;;1.00;1.00;;;;;27.96;22.39;100503.38;5078528;28;45545;-75
2023/03/29 07:27:55;;;;;;;;;3.00;1.00;;;;;27.19;22.94;100504.66;5080040;28;45481;-73
2023/03/29 07:30:28;;;;;;;;;1.00;1.00;;;;;27.06;23.39;100505.19;5080217;27;45518;-74
2023/03/29 07:32:54;;;;;;;;;1.00;1.00;;;;;27.93;23.08;100515.13;5061266;28;45751;-73
2023/03/29 07:35:22;;;;;;;;;1.67;1.00;;;;;28.75;22.10;100523.16;5079297;27;45489;-73
2023/03/29 07:37:47;;;;;;;;;1.00;1.00;;;;;29.37;21.72;100516.72;5062107;28;45501;-79
2023/03/29 07:40:22;;;;;;;;;1.00;0.00;;;;;30.08;20.58;100514.06;5080446;28;45516;-84
2023/03/29 07:42:51;;;;;;;;;1.00;1.00;;;;;30.99;20.20;100522.75;5079754;28;45421;-83
2023/03/29 07:45:16;;;;;;;;;1.67;1.67;;;;;31.69;18.25;100496.25;5080165;28;45276;-80
2023/03/29 07:47:43;;;;;;;;;0.00;0.00;;;;;32.59;19.21;100513.41;5080499;28;45311;-81
2023/03/29 07:50:09;;;;;;;;;0.33;0.33;;;;;33.41;17.96;100509.94;5080940;28;45362;-78
2023/03/29 07:52:37;;;;;;;;;0.00;0.00;;;;;33.77;18.48;100523.88;5080038;27;46054;-84
2023/03/29 07:55:04;;;;;;;;;0.00;0.00;;;;;34.10;16.75;100496.28;5080236;28;45393;-73
2023/03/29 07:57:30;;;;;;;;;0.67;0.67;;;;;34.40;17.40;100504.16;5080384;28;45210;-74
2023/03/29 07:59:55;;;;;;;;;0.00;0.00;;;;;33.82;15.73;100506.34;5080445;28;45466;-75
2023/03/29 08:02:21;;;;;;;;;0.67;0.67;;;;;34.39;16.84;100515.09;5079702;28;45999;-73
2023/03/29 08:04:47;;;;;;;;;0.00;0.00;;;;;35.27;16.28;100497.97;5061642;28;45473;-73
2023/03/29 08:07:13;;;;;;;;;0.67;0.67;;;;;35.62;15.81;100503.47;5080256;28;45227;-74
2023/03/29 08:09:39;;;;;;;;;1.00;1.00;;;;;36.24;15.60;100502.38;5080256;28;45469;-74
2023/03/29 08:12:05;;;;;;;;;0.67;0.67;;;;;36.99;15.12;100499.06;5079973;28;46496;-85
2023/03/29 08:14:30;;;;;;;;;0.67;0.00;;;;;36.86;14.39;100476.56;5079685;28;45340;-74
2023/03/29 08:16:57;;;;;;;;;1.00;1.00;;;;;36.77;15.49;100482.78;5080554;28;45504;-80
2023/03/29 08:19:22;;;;;;;;;0.67;0.33;;;;;36.65;14.90;100487.34;5079635;28;45297;-74
2023/03/29 08:21:48;;;;;;;;;1.00;1.00;;;;;37.31;14.55;100490.13;5061423;28;45431;-76
2023/03/29 08:24:13;;;;;;;;;1.00;1.00;;;;;37.38;14.53;100479.56;5079483;28;45441;-86
2023/03/29 08:26:39;;;;;;;;;2.00;0.33;;;;;36.90;14.95;100475.31;5080110;28;45429;-86
2023/03/29 08:29:05;;;;;;;;;0.67;0.67;;;;;36.76;15.55;100491.91;5079928;28;45385;-86
2023/03/29 08:31:32;;;;;;;;;1.00;1.00;;;;;36.65;15.38;100495.53;5079936;28;46149;-85
2023/03/29 08:33:57;;;;;;;;;0.33;0.33;;;;;36.14;15.85;100491.31;5079908;28;45432;-77
2023/03/29 08:36:23;;;;;;;;;1.67;1.00;;;;;36.70;15.82;100497.88;5079164;28;45482;-86
2023/03/29 08:38:49;;;;;;;;;2.33;0.67;;;;;36.76;14.88;100481.03;5080033;28;45427;-83
2023/03/29 08:42:06;;;;;;;;;2.00;2.00;;;;;36.79;15.03;100478.94;5077300;28;46034;-85
2023/03/29 08:44:40;;;;;;;;;1.67;1.67;;;;;36.59;15.16;100495.97;5046063;28;45308;-84
2023/03/29 08:47:31;;;;;;;;;1.00;1.00;;;;;36.68;14.61;100494.41;5058623;28;45416;-87
2023/03/29 08:49:58;;;;;;;;;0.67;0.67;;;;;36.87;14.66;100483.75;5059456;28;45411;-84
2023/03/29 08:52:37;;;;;;;;;0.67;0.67;;;;;36.95;14.43;100485.84;5058900;28;46036;-83
2023/03/29 08:55:12;;;;;;;;;1.00;0.67;;;;;36.26;14.67;100473.19;5059135;28;45481;-83
2023/03/29 08:57:45;;;;;;;;;1.33;1.00;;;;;36.12;15.25;100479.69;5041179;28;45749;-81
2023/03/29 09:00:17;;;;;;;;;1.50;1.50;;;;;36.13;14.75;100480.53;5074142;28;45280;-73
2023/03/29 09:02:44;;;;;;;;;0.00;0.00;;;;;35.97;15.21;100475.44;5079270;28;45428;-83
2023/03/29 09:05:32;;;;;;;;;0.33;0.00;;;;;36.02;15.56;100476.81;5061006;28;45485;-76
2023/03/29 09:07:58;;;;;;;;;0.00;0.00;;;;;35.99;15.54;100477.06;5079343;28;45327;-85
2023/03/29 09:10:35;;;;;;;;;0.00;0.00;;;;;36.36;15.42;100478.78;5079649;28;45413;-78
2023/03/29 09:13:20;;;;;;;;;0.67;0.67;;;;;36.07;15.38;100483.75;5079409;27;46092;-78
2023/03/29 09:16:23;;;;;;;;;6.00;6.00;;;;;35.76;15.65;100475.28;5078295;28;45523;-83
2023/03/29 09:19:13;;;;;;;;;0.67;0.00;;;;;35.45;15.87;100477.56;5079023;28;45434;-78
2023/03/29 09:21:48;;;;;;;;;1.67;1.00;;;;;35.00;16.17;100474.59;5078673;28;45418;-87
2023/03/29 09:24:19;;;;;;;;;0.33;0.33;;;;;34.92;16.70;100466.09;5078654;28;46255;-80
2023/03/29 09:26:51;;;;;;;;;0.67;0.67;;;;;34.84;16.23;100464.84;5078762;28;45513;-84
2023/03/29 09:29:38;;;;;;;;;2.00;2.00;;;;;34.70;17.13;100464.09;5078735;28;45506;-78
2023/03/29 09:32:18;;;;;;;;;1.00;1.00;;;;;34.60;17.04;100448.47;5079375;28;45276;-78
2023/03/29 09:34:52;;;;;;;;;1.00;1.00;;;;;34.75;16.77;100457.38;5077848;28;45492;-82
2023/03/29 09:37:37;;;;;;;;;1.33;0.67;;;;;34.69;17.11;100462.38;5078261;28;45260;-86
2023/03/29 09:40:10;;;;;;;;;0.00;0.00;;;;;34.71;17.72;100463.13;5078793;28;45223;-78
2023/03/29 09:42:38;;;;;;;;;1.00;1.00;;;;;35.00;17.15;100461.00;5078148;28;45817;-73
2023/03/29 09:45:07;;;;;;;;;1.67;0.67;;;;;34.78;17.73;100438.16;5078181;28;45530;-73
2023/03/29 09:47:47;;;;;;;;;0.67;0.67;;;;;34.43;16.89;100438.84;5078499;28;45472;-74
2023/03/29 09:50:20;;;;;;;;;0.33;0.33;;;;;34.24;17.80;100442.00;5060277;28;45564;-75
2023/03/29 09:52:48;;;;;;;;;1.67;0.67;;;;;34.09;17.70;100443.06;5062208;28;45231;-84
2023/03/29 09:55:16;;;;;;;;;1.00;1.00;;;;;34.07;17.45;100439.56;5088871;28;45271;-77
2023/03/29 09:57:44;;;;;;;;;1.00;1.00;;;;;33.87;17.67;100419.28;5078782;28;45411;-76
2023/03/29 10:00:12;;;;;;;;;0.00;0.00;;;;;34.06;17.82;100430.59;5097472;28;45254;-73
2023/03/29 10:02:38;;;;;;;;;2.00;0.67;;;;;34.46;15.91;100426.88;5080283;28;45152;-74
2023/03/29 10:05:06;;;;;;;;;1.67;0.67;;;;;34.64;17.37;100430.13;5096254;28;45567;-73
2023/03/29 10:07:45;;;;;;;;;1.33;1.00;;;;;35.23;16.50;100430.28;5088972;28;45485;-74
2023/03/29 10:10:21;;;;;;;;;1.00;0.00;;;;;35.42;16.00;100416.19;5090071;28;45303;-84
2023/03/29 10:12:52;;;;;;;;;3.33;2.33;;;;;35.47;15.63;100417.69;5078652;28;45308;-74
2023/03/29 10:15:20;;;;;;;;;0.67;0.67;;;;;35.79;15.59;100409.78;5060200;28;46762;-87
2023/03/29 10:17:46;;;;;;;;;1.00;1.00;;;;;35.96;15.45;100408.47;5079126;28;45465;-87
2023/03/29 10:20:18;;;;;;;;;0.33;0.00;;;;;35.68;16.04;100424.22;5077471;28;45477;-80
2023/03/29 10:22:56;;;;;;;;;1.00;0.67;;;;;35.38;15.60;100406.56;5078260;28;45441;-86
2023/03/29 10:25:30;;;;;;;;;0.67;0.67;;;;;35.41;15.49;100422.59;5077695;28;45394;-84
2023/03/29 10:28:16;;;;;;;;;1.00;0.67;;;;;35.46;15.69;100403.25;5077802;28;45323;-85
2023/03/29 10:30:46;;;;;;;;;1.67;1.67;;;;;35.16;15.19;100409.19;5077176;28;45303;-85
2023/03/29 10:33:18;;;;;;;;;1.67;0.67;;;;;35.09;15.56;100414.16;5078040;28;45509;-86
2023/03/29 10:35:45;;;;;;;;;1.33;1.00;;;;;34.88;15.70;100402.19;5077887;28;45747;-87
2023/03/29 10:38:17;;;;;;;;;1.00;1.00;;;;;35.17;15.87;100411.75;5077648;28;45492;-87
2023/03/29 10:40:46;;;;;;;;;1.00;1.00;;;;;35.28;15.30;100394.66;5077957;28;45335;-85
2023/03/29 10:43:18;;;;;;;;;1.00;1.00;;;;;35.37;14.76;100393.09;5077784;27;45446;-73
2023/03/29 10:45:48;;;;;;;;;1.00;1.00;;;;;35.18;15.80;100378.22;5071242;28;45738;-74
2023/03/29 10:48:16;;;;;;;;;2.67;1.33;;;;;35.15;15.48;100385.69;5038203;28;45436;-73
2023/03/29 10:50:47;;;;;;;;;0.67;0.67;;;;;34.82;15.27;100387.25;5038922;28;45508;-73
2023/03/29 10:53:34;;;;;;;;;1.67;1.33;;;;;34.64;15.81;100389.44;5038966;28;45537;-76
2023/03/29 10:56:28;;;;;;;;;0.67;0.67;;;;;34.83;15.96;100378.09;5056765;28;45450;-73
2023/03/29 10:59:22;;;;;;;;;1.00;1.00;;;;;34.79;16.00;100384.75;5057040;28;45360;-73
2023/03/29 11:02:13;;;;;;;;;1.00;0.67;;;;;34.69;15.67;100381.84;5057090;28;45393;-79
2023/03/29 11:05:04;;;;;;;;;1.00;1.00;;;;;34.64;15.08;100368.59;5039257;28;45537;-73
2023/03/29 11:07:43;;;;;;;;;0.50;0.50;;;;;34.49;15.75;100372.44;5056812;28;45622;-73
2023/03/29 11:10:08;;;;;;;;;1.00;1.00;;;;;34.44;15.88;100369.19;5057083;28;45403;-73
2023/03/29 11:13:07;;;;;;;;;0.00;0.00;;;;;34.21;16.24;100365.44;5038954;28;45176;-73
2023/03/29 11:16:31;;;;;;;;;2.00;2.00;;;;;33.80;16.38;100364.66;5056769;28;45453;-74
2023/03/29 11:18:59;;;;;;;;;1.67;1.67;;;;;33.69;17.11;100369.97;5018357;28;46039;-73
2023/03/29 11:21:45;;;;;;;;;0.67;0.67;;;;;33.59;16.84;100368.84;5072805;28;45464;-74
2023/03/29 11:24:45;;;;;;;;;2.00;2.00;;;;;33.42;17.89;100365.44;5077541;28;45487;-73
2023/03/29 11:27:21;;;;;;;;;1.67;1.67;;;;;33.40;17.55;100369.22;5077465;28;45275;-74
2023/03/29 11:30:12;;;;;;;;;0.00;0.00;;;;;33.21;16.78;100356.09;5076437;28;46156;-73
2023/03/29 11:32:54;;;;;;;;;1.33;0.33;;;;;32.92;17.32;100347.19;5077114;28;45452;-74
2023/03/29 11:35:36;;;;;;;;;1.00;1.00;;;;;32.80;17.06;100351.59;5076910;27;45476;-74
2023/03/29 11:38:20;;;;;;;;;0.00;0.00;;;;;32.63;17.14;100345.44;5076989;28;45437;-80
2023/03/29 11:40:52;;;;;;;;;1.67;1.33;;;;;32.42;16.89;100331.44;5076591;28;45299;-76